Time;durP1;ratioP1;P1;durP2;ratioP2;P2;SDS_P1;SDS_P2;PMS_P1;PMS_P2;Temp;Humidity;BMP_temperature;BMP_pressure;BME280_temperature;BME280_humidity;BME280_pressure;Samples;Min_cycle;Max_cycle;Signal;HPM_P1;HPM_P2
2021/04/29 00:01:30;;;;;;;18.55;11.22;;;14.40;68.40;;;;;;1836328;76;21094;-76
2021/04/29 00:03:57;;;;;;;16.07;10.93;;;14.50;67.50;;;;;;1832158;76;21038;-76
2021/04/29 00:06:25;;;;;;;17.20;10.50;;;14.50;68.80;;;;;;1830421;76;21054;-77
2021/04/29 00:08:52;;;;;;;17.67;11.12;;;14.40;69.00;;;;;;1836647;76;21204;-78
2021/04/29 00:11:20;;;;;;;18.27;11.30;;;14.40;69.60;;;;;;1832318;76;21141;-75
2021/04/29 00:13:47;;;;;;;18.48;10.58;;;14.30;70.90;;;;;;1835181;76;21032;-77
2021/04/29 00:16:15;;;;;;;16.50;10.13;;;14.30;71.00;;;;;;1833725;76;21165;-78
2021/04/29 00:18:42;;;;;;;15.58;10.70;;;14.40;70.80;;;;;;1839892;76;21208;-76
2021/04/29 00:21:10;;;;;;;15.55;10.05;;;14.30;71.40;;;;;;1832803;76;21153;-76
2021/04/29 00:23:37;;;;;;;15.65;10.55;;;14.20;71.90;;;;;;1838171;76;21176;-76
2021/04/29 00:26:05;;;;;;;15.85;10.58;;;14.20;72.20;;;;;;1836706;76;21095;-78
2021/04/29 00:28:32;;;;;;;13.62;11.03;;;14.10;73.30;;;;;;1832897;76;21154;-76
2021/04/29 00:31:00;;;;;;;15.50;10.85;;;14.10;73.60;;;;;;1834285;76;22099;-76
2021/04/29 00:33:27;;;;;;;16.52;11.30;;;14.00;74.00;;;;;;1834147;76;21042;-78
2021/04/29 00:36:00;;;;;;;16.57;11.20;;;14.10;74.70;;;;;;1831816;76;21132;-78
2021/04/29 00:38:24;;;;;;;19.87;10.65;;;14.00;75.60;;;;;;1832270;76;21693;-77
2021/04/29 00:40:52;;;;;;;15.40;10.23;;;13.80;75.90;;;;;;1832731;76;21125;-78
2021/04/29 00:43:20;;;;;;;13.70;10.08;;;13.80;76.70;;;;;;1836800;76;21146;-78
2021/04/29 00:45:47;;;;;;;14.03;10.80;;;13.70;78.00;;;;;;1834386;77;21129;-78
2021/04/29 00:48:15;;;;;;;15.15;10.82;;;13.80;77.80;;;;;;1832933;76;21117;-77
2021/04/29 00:50:43;;;;;;;17.98;10.53;;;13.90;77.20;;;;;;1835818;76;21176;-79
2021/04/29 00:53:11;;;;;;;13.32;10.20;;;14.00;78.00;;;;;;1833772;76;21074;-78
2021/04/29 00:55:38;;;;;;;15.03;11.15;;;14.00;77.50;;;;;;1829596;76;21556;-77
2021/04/29 00:58:06;;;;;;;18.90;10.75;;;13.90;78.00;;;;;;1833067;76;21101;-76
2021/04/29 01:00:34;;;;;;;15.53;11.57;;;13.80;78.80;;;;;;1835967;76;21164;-76
2021/04/29 01:03:10;;;;;;;17.17;11.00;;;13.70;79.70;;;;;;1833452;77;21234;-75
2021/04/29 01:05:41;;;;;;;14.23;11.15;;;13.70;80.40;;;;;;1833257;76;21118;-77
2021/04/29 01:08:14;;;;;;;17.90;11.30;;;13.70;80.70;;;;;;1832889;76;21054;-78
2021/04/29 01:10:47;;;;;;;17.48;11.68;;;13.80;81.60;;;;;;1831639;76;21770;-77
2021/04/29 01:13:18;;;;;;;14.23;10.85;;;13.90;80.50;;;;;;1837572;76;21559;-77
2021/04/29 01:15:47;;;;;;;19.50;11.60;;;13.90;80.90;;;;;;1835957;76;21157;-75
2021/04/29 01:18:16;;;;;;;16.65;11.05;;;14.00;81.90;;;;;;1830394;76;21098;-76
2021/04/29 01:21:07;;;;;;;16.70;11.53;;;14.10;80.80;;;;;;1835409;76;21138;-77
2021/04/29 01:23:49;;;;;;;15.75;11.80;;;14.00;81.20;;;;;;1835760;76;21093;-76
2021/04/29 01:26:32;;;;;;;15.35;11.97;;;13.70;82.40;;;;;;1794832;76;21575;-77
2021/04/29 01:29:03;;;;;;;15.15;11.30;;;13.60;83.20;;;;;;1827848;77;21117;-77
2021/04/29 01:31:33;;;;;;;18.20;11.20;;;13.50;84.20;;;;;;1828003;76;21089;-77
2021/04/29 01:34:03;;;;;;;19.25;11.40;;;13.40;85.40;;;;;;1832644;76;21047;-75
2021/04/29 01:36:32;;;;;;;15.53;11.40;;;13.40;86.40;;;;;;1831108;76;21118;-77
2021/04/29 01:39:03;;;;;;;14.58;10.75;;;13.40;87.20;;;;;;1826667;76;21150;-76
2021/04/29 01:41:30;;;;;;;15.90;11.28;;;13.40;87.70;;;;;;1836382;76;21074;-77
2021/04/29 01:43:59;;;;;;;15.45;11.22;;;13.40;88.20;;;;;;1834325;76;21140;-75
2021/04/29 01:46:27;;;;;;;15.28;11.00;;;13.40;88.60;;;;;;1839214;76;21131;-76
2021/04/29 01:48:54;;;;;;;13.40;10.93;;;13.40;89.20;;;;;;1831924;76;21516;-77
2021/04/29 01:51:23;;;;;;;14.18;10.90;;;13.60;89.00;;;;;;1833759;76;21571;-78
2021/04/29 01:53:51;;;;;;;18.17;10.85;;;13.70;88.70;;;;;;1836503;76;21042;-76
2021/04/29 01:56:20;;;;;;;13.05;10.68;;;13.60;89.00;;;;;;1835839;76;21538;-77
2021/04/29 01:58:48;;;;;;;13.80;10.50;;;13.50;89.60;;;;;;1832282;77;21477;-76
2021/04/29 02:01:15;;;;;;;14.95;10.63;;;13.50;90.20;;;;;;1835590;76;21066;-77
2021/04/29 02:03:43;;;;;;;13.50;10.63;;;13.40;90.90;;;;;;1832390;76;21211;-75
2021/04/29 02:06:10;;;;;;;13.22;10.40;;;13.50;91.00;;;;;;1833581;76;21119;-78
2021/04/29 02:08:38;;;;;;;14.10;10.88;;;13.60;90.60;;;;;;1834756;76;21109;-76
2021/04/29 02:11:05;;;;;;;13.18;10.72;;;13.70;91.10;;;;;;1830685;76;21105;-77
2021/04/29 02:13:35;;;;;;;15.23;10.60;;;13.70;90.70;;;;;;1833418;76;21777;-76
2021/04/29 02:16:06;;;;;;;13.75;10.63;;;13.60;90.80;;;;;;1830217;76;21058;-77
2021/04/29 02:18:34;;;;;;;13.45;10.55;;;13.50;91.10;;;;;;1834871;76;21520;-77
2021/04/29 02:21:02;;;;;;;13.18;11.25;;;13.40;91.90;;;;;;1832997;76;21661;-78
2021/04/29 02:23:30;;;;;;;13.35;10.55;;;13.50;92.00;;;;;;1837496;76;21121;-75
2021/04/29 02:26:00;;;;;;;12.93;10.55;;;13.50;92.50;;;;;;1831233;77;21124;-76
2021/04/29 02:28:30;;;;;;;17.12;10.93;;;13.50;93.00;;;;;;1829777;76;21125;-75
2021/04/29 02:30:58;;;;;;;15.93;10.82;;;13.50;92.70;;;;;;1830673;77;21078;-76
2021/04/29 02:33:25;;;;;;;13.18;10.03;;;13.40;93.00;;;;;;1831553;76;21140;-76
2021/04/29 02:35:53;;;;;;;13.50;10.50;;;13.40;93.30;;;;;;1831483;77;21101;-77
2021/04/29 02:38:20;;;;;;;12.53;10.43;;;13.40;93.60;;;;;;1830564;76;21105;-76
2021/04/29 02:40:49;;;;;;;13.38;10.55;;;13.40;94.00;;;;;;1828569;76;21135;-76
2021/04/29 02:43:17;;;;;;;14.90;11.30;;;13.30;94.50;;;;;;1830731;76;21102;-76
2021/04/29 02:45:46;;;;;;;12.75;10.90;;;13.30;94.40;;;;;;1834901;76;21180;-77
2021/04/29 02:48:16;;;;;;;14.75;10.70;;;13.30;94.90;;;;;;1832298;77;21552;-77
2021/04/29 02:50:44;;;;;;;15.88;11.75;;;13.30;95.10;;;;;;1837996;76;21177;-76
2021/04/29 02:53:13;;;;;;;16.67;10.93;;;13.20;95.50;;;;;;1832283;76;21587;-76
2021/04/29 02:55:43;;;;;;;15.00;12.35;;;13.20;95.90;;;;;;1834246;76;21042;-76
2021/04/29 02:58:11;;;;;;;13.55;11.22;;;13.20;96.10;;;;;;1833301;76;21140;-77
2021/04/29 03:00:40;;;;;;;16.02;12.15;;;13.30;96.30;;;;;;1835931;76;21086;-77
2021/04/29 03:03:08;;;;;;;16.93;11.28;;;13.30;96.60;;;;;;1826091;77;21054;-76
2021/04/29 03:05:37;;;;;;;14.70;11.30;;;13.30;96.40;;;;;;1832334;76;21211;-77
2021/04/29 03:08:04;;;;;;;16.73;12.45;;;13.30;96.70;;;;;;1830540;76;21148;-77
2021/04/29 03:10:32;;;;;;;14.33;11.08;;;13.40;96.30;;;;;;1829997;76;21074;-77
2021/04/29 03:13:00;;;;;;;15.40;10.63;;;13.50;96.10;;;;;;1831203;76;21079;-79
2021/04/29 03:15:27;;;;;;;12.98;10.95;;;13.60;96.20;;;;;;1829463;76;21038;-78
2021/04/29 03:17:55;;;;;;;13.95;11.83;;;13.50;96.30;;;;;;1832889;76;21040;-79
2021/04/29 03:20:22;;;;;;;13.35;11.43;;;13.40;96.70;;;;;;1830139;77;21122;-78
2021/04/29 03:22:50;;;;;;;14.30;11.53;;;13.40;96.90;;;;;;1835110;76;21141;-78
2021/04/29 03:25:17;;;;;;;17.07;12.07;;;13.40;97.10;;;;;;1830295;76;21580;-78
2021/04/29 03:27:45;;;;;;;14.15;11.83;;;13.50;97.30;;;;;;1834960;76;21195;-78
2021/04/29 03:30:13;;;;;;;15.23;12.30;;;13.50;97.10;;;;;;1836504;76;21237;-77
2021/04/29 03:32:40;;;;;;;15.08;12.45;;;13.50;97.10;;;;;;1828216;76;21162;-77
2021/04/29 03:35:08;;;;;;;13.00;10.98;;;13.50;97.00;;;;;;1834384;76;21272;-75
2021/04/29 03:37:36;;;;;;;14.38;11.28;;;13.60;97.30;;;;;;1840286;76;21650;-77
2021/04/29 03:40:04;;;;;;;13.68;11.30;;;13.50;97.30;;;;;;1837825;76;21177;-78
2021/04/29 03:42:31;;;;;;;14.35;11.48;;;13.60;97.60;;;;;;1828705;76;21509;-78
2021/04/29 03:44:59;;;;;;;14.58;12.28;;;13.50;97.50;;;;;;1833080;76;21220;-77
2021/04/29 03:47:26;;;;;;;17.50;11.57;;;13.50;98.10;;;;;;1829231;76;21121;-77
2021/04/29 03:49:54;;;;;;;14.38;12.25;;;13.40;98.40;;;;;;1838963;77;21148;-77
2021/04/29 03:52:21;;;;;;;15.05;12.05;;;13.40;98.30;;;;;;1824746;77;21046;-77
2021/04/29 03:54:49;;;;;;;14.80;11.88;;;13.40;98.30;;;;;;1832727;76;21167;-77
2021/04/29 03:57:16;;;;;;;14.75;12.23;;;13.40;98.60;;;;;;1826831;76;21109;-77
2021/04/29 03:59:44;;;;;;;16.02;12.55;;;13.40;98.60;;;;;;1835530;76;21548;-77
2021/04/29 04:02:12;;;;;;;16.05;12.28;;;13.40;99.00;;;;;;1833148;76;21148;-76
2021/04/29 04:04:39;;;;;;;16.57;12.23;;;13.30;99.00;;;;;;1833407;76;21134;-76
2021/04/29 04:07:07;;;;;;;15.65;10.95;;;13.40;99.40;;;;;;1830169;76;21172;-77
2021/04/29 04:09:34;;;;;;;14.10;12.03;;;13.20;99.50;;;;;;1831112;76;21532;-75
2021/04/29 04:12:02;;;;;;;16.40;12.58;;;13.20;99.70;;;;;;1830148;76;21114;-77
2021/04/29 04:14:30;;;;;;;16.12;12.28;;;13.00;99.90;;;;;;1836089;76;21094;-76
2021/04/29 04:16:57;;;;;;;21.95;13.05;;;13.00;99.90;;;;;;1834727;76;21207;-76
2021/04/29 04:19:25;;;;;;;16.17;13.08;;;12.90;99.90;;;;;;1835152;76;21169;-76
2021/04/29 04:21:52;;;;;;;16.42;12.82;;;13.00;99.90;;;;;;1830096;76;21208;-75
2021/04/29 04:24:20;;;;;;;19.12;13.35;;;13.00;99.90;;;;;;1832448;76;21102;-77
2021/04/29 04:26:47;;;;;;;17.60;12.50;;;13.00;99.90;;;;;;1835151;76;21180;-77
2021/04/29 04:29:15;;;;;;;15.43;12.93;;;13.10;99.90;;;;;;1844787;74;21105;-71
2021/04/29 04:31:42;;;;;;;17.25;13.68;;;13.20;99.90;;;;;;1901595;75;21082;-71
2021/04/29 04:34:10;;;;;;;18.85;12.90;;;13.20;99.90;;;;;;1901341;74;21070;-73
2021/04/29 04:36:37;;;;;;;13.88;12.47;;;13.10;99.90;;;;;;1898460;75;21489;-71
2021/04/29 04:39:05;;;;;;;15.70;13.08;;;13.20;99.90;;;;;;1894455;75;21192;-71
2021/04/29 04:41:32;;;;;;;20.90;12.90;;;13.30;99.90;;;;;;1876753;75;21086;-70
2021/04/29 04:44:00;;;;;;;15.30;12.90;;;13.30;99.90;;;;;;1872245;74;21096;-71
2021/04/29 04:46:27;;;;;;;14.63;12.93;;;13.40;99.90;;;;;;1870729;75;21074;-70
2021/04/29 04:48:55;;;;;;;16.12;13.58;;;13.30;99.90;;;;;;1873610;75;21055;-71
2021/04/29 04:51:23;;;;;;;19.37;13.22;;;13.30;99.90;;;;;;1872146;75;21094;-71
2021/04/29 04:53:51;;;;;;;14.33;12.45;;;13.30;99.90;;;;;;1875736;75;21179;-72
2021/04/29 04:56:18;;;;;;;15.50;13.20;;;13.10;99.90;;;;;;1871628;75;21486;-72
2021/04/29 04:58:46;;;;;;;17.42;13.00;;;13.10;99.90;;;;;;1873967;74;21171;-71
2021/04/29 05:01:13;;;;;;;17.65;13.83;;;13.10;99.90;;;;;;1870762;75;21231;-72
2021/04/29 05:03:41;;;;;;;15.72;13.20;;;13.00;99.90;;;;;;1866258;75;21167;-71
2021/04/29 05:06:08;;;;;;;16.42;12.68;;;13.10;99.90;;;;;;1870485;75;21130;-72
2021/04/29 05:08:36;;;;;;;15.00;13.40;;;13.10;99.90;;;;;;1870660;75;21081;-73
2021/04/29 05:11:03;;;;;;;18.82;13.85;;;13.10;99.90;;;;;;1873231;74;21116;-72
2021/04/29 05:13:31;;;;;;;16.17;13.28;;;13.10;99.90;;;;;;1871794;74;22219;-72
2021/04/29 05:15:58;;;;;;;15.00;13.08;;;13.20;99.90;;;;;;1871681;75;21167;-71
2021/04/29 05:18:26;;;;;;;17.85;13.55;;;13.20;99.90;;;;;;1870372;75;21148;-70
2021/04/29 05:20:54;;;;;;;17.50;13.08;;;13.20;99.90;;;;;;1872378;75;21102;-72
2021/04/29 05:23:21;;;;;;;14.93;12.00;;;13.30;99.90;;;;;;1869268;75;21572;-71
2021/04/29 05:25:49;;;;;;;16.27;13.55;;;13.30;99.90;;;;;;1871963;75;21561;-72
2021/04/29 05:28:16;;;;;;;17.23;13.60;;;13.40;99.90;;;;;;1874325;75;21561;-72
2021/04/29 05:30:44;;;;;;;16.85;12.50;;;13.30;99.90;;;;;;1872173;75;21750;-72
2021/04/29 05:33:11;;;;;;;17.30;13.38;;;13.30;99.90;;;;;;1870789;75;21082;-71
2021/04/29 05:35:39;;;;;;;16.97;13.38;;;13.20;99.90;;;;;;1873193;75;21783;-71
2021/04/29 05:38:06;;;;;;;15.90;13.13;;;13.10;99.90;;;;;;1875385;75;21520;-72
2021/04/29 05:40:34;;;;;;;15.05;13.00;;;13.20;99.90;;;;;;1872263;75;21118;-72
2021/04/29 05:43:01;;;;;;;18.05;13.30;;;13.30;99.90;;;;;;1870008;75;21507;-71
2021/04/29 05:45:29;;;;;;;15.25;12.93;;;13.40;99.90;;;;;;1874583;75;21054;-71
2021/04/29 05:47:56;;;;;;;16.17;13.22;;;13.40;99.90;;;;;;1872413;75;21598;-71
2021/04/29 05:50:24;;;;;;;16.40;14.10;;;13.40;99.90;;;;;;1873082;75;21136;-72
2021/04/29 05:52:51;;;;;;;16.30;12.82;;;13.30;99.90;;;;;;1872346;75;21082;-72
2021/04/29 05:55:19;;;;;;;16.52;13.65;;;13.20;99.90;;;;;;1870278;75;21524;-72
2021/04/29 05:57:46;;;;;;;15.68;13.85;;;13.20;99.90;;;;;;1872716;75;21657;-72
2021/04/29 06:00:15;;;;;;;17.98;14.07;;;13.10;99.90;;;;;;1869075;75;21134;-70
2021/04/29 06:02:42;;;;;;;16.37;13.15;;;13.20;99.90;;;;;;1869316;75;21089;-76
2021/04/29 06:05:10;;;;;;;19.00;14.40;;;13.40;99.90;;;;;;1870118;74;21613;-75
2021/04/29 06:07:38;;;;;;;19.95;14.47;;;13.40;99.90;;;;;;1867674;74;21082;-76
2021/04/29 06:10:06;;;;;;;14.75;13.18;;;13.40;99.90;;;;;;1871532;74;21156;-74
2021/04/29 06:12:33;;;;;;;18.35;14.20;;;13.50;99.90;;;;;;1877246;74;21202;-74
2021/04/29 06:15:01;;;;;;;20.77;14.50;;;13.50;99.90;;;;;;1874261;74;21082;-73
2021/04/29 06:17:28;;;;;;;18.42;13.88;;;13.40;99.90;;;;;;1870926;75;21172;-73
2021/04/29 06:19:56;;;;;;;18.75;15.00;;;13.40;99.90;;;;;;1870399;75;21109;-72
2021/04/29 06:22:23;;;;;;;17.48;14.18;;;13.50;99.90;;;;;;1868588;75;21563;-73
2021/04/29 06:24:51;;;;;;;17.12;14.78;;;13.60;99.90;;;;;;1868468;75;21172;-73
2021/04/29 06:27:18;;;;;;;16.10;14.40;;;13.80;99.90;;;;;;1870665;75;21191;-72
2021/04/29 06:29:46;;;;;;;17.00;13.93;;;13.90;99.90;;;;;;1867074;75;21078;-71
2021/04/29 06:32:13;;;;;;;19.00;14.38;;;13.90;99.90;;;;;;1870885;75;21623;-72
2021/04/29 06:34:42;;;;;;;16.73;13.85;;;13.90;99.90;;;;;;1868897;75;21137;-71
2021/04/29 06:37:09;;;;;;;16.02;14.23;;;13.90;99.90;;;;;;1872022;75;21133;-71
2021/04/29 06:39:37;;;;;;;18.35;14.93;;;14.00;99.90;;;;;;1870496;75;21133;-72
2021/04/29 06:42:05;;;;;;;16.82;14.55;;;14.10;99.90;;;;;;1873456;75;21101;-74
2021/04/29 06:44:32;;;;;;;16.60;14.00;;;14.00;99.90;;;;;;1874496;75;21706;-72
2021/04/29 06:47:00;;;;;;;17.10;15.13;;;13.90;99.90;;;;;;1871254;75;21184;-74
2021/04/29 06:49:28;;;;;;;17.17;14.23;;;13.80;99.90;;;;;;1873689;75;21667;-74
2021/04/29 06:51:56;;;;;;;17.82;14.80;;;13.50;99.90;;;;;;1872375;75;21086;-73
2021/04/29 06:54:23;;;;;;;16.85;14.10;;;13.70;99.90;;;;;;1873367;75;21019;-76
2021/04/29 06:56:52;;;;;;;15.40;13.45;;;13.70;99.90;;;;;;1870207;75;21075;-75
2021/04/29 06:59:20;;;;;;;17.32;13.15;;;13.80;99.90;;;;;;1871262;75;21121;-75
2021/04/29 07:01:48;;;;;;;15.05;13.45;;;13.80;99.90;;;;;;1869209;74;21039;-76
2021/04/29 07:04:15;;;;;;;20.25;13.98;;;13.80;99.90;;;;;;1872254;75;21031;-75
2021/04/29 07:06:43;;;;;;;17.52;12.47;;;13.90;99.90;;;;;;1868769;75;21066;-73
2021/04/29 07:09:10;;;;;;;18.17;12.73;;;14.10;99.90;;;;;;1877294;75;21130;-74
2021/04/29 07:11:38;;;;;;;17.32;13.55;;;14.10;99.90;;;;;;1877494;74;21151;-74
2021/04/29 07:14:05;;;;;;;15.58;12.65;;;14.10;99.90;;;;;;1875795;75;21059;-74
2021/04/29 07:16:33;;;;;;;19.17;13.98;;;14.10;99.90;;;;;;1871305;74;21101;-74
2021/04/29 07:19:00;;;;;;;16.05;12.80;;;14.00;99.90;;;;;;1875068;75;21105;-74
2021/04/29 07:21:28;;;;;;;16.50;12.95;;;14.10;99.90;;;;;;1869769;75;21023;-74
2021/04/29 07:23:56;;;;;;;17.62;12.98;;;14.10;99.90;;;;;;1871008;75;21078;-74
2021/04/29 07:26:23;;;;;;;16.93;12.75;;;14.00;99.90;;;;;;1872835;75;21149;-73
2021/04/29 07:28:51;;;;;;;14.83;12.85;;;14.00;99.90;;;;;;1871145;74;21144;-73
2021/04/29 07:31:18;;;;;;;14.38;12.65;;;13.70;99.90;;;;;;1870706;75;21079;-73
2021/04/29 07:33:46;;;;;;;15.10;12.70;;;13.70;99.90;;;;;;1871559;75;21209;-73
2021/04/29 07:36:13;;;;;;;14.85;12.78;;;13.70;99.90;;;;;;1872948;74;21098;-73
2021/04/29 07:38:44;;;;;;;16.40;12.93;;;13.80;99.90;;;;;;1873294;75;21097;-73
2021/04/29 07:41:11;;;;;;;17.02;14.07;;;13.90;99.90;;;;;;1865127;75;21121;-76
2021/04/29 07:43:39;;;;;;;15.83;13.25;;;13.80;99.90;;;;;;1869318;75;21176;-75
2021/04/29 07:46:07;;;;;;;15.03;13.20;;;13.70;99.90;;;;;;1870395;74;21085;-74
2021/04/29 07:48:34;;;;;;;17.02;13.58;;;13.80;99.90;;;;;;1868197;75;21042;-72
2021/04/29 07:51:02;;;;;;;19.12;13.32;;;13.70;99.90;;;;;;1870165;75;21130;-73
2021/04/29 07:53:30;;;;;;;16.07;13.65;;;13.70;99.90;;;;;;1871960;75;21594;-72
2021/04/29 07:55:59;;;;;;;15.60;13.40;;;13.70;99.90;;;;;;1866420;75;21536;-73
2021/04/29 07:58:27;;;;;;;16.62;14.63;;;13.80;99.90;;;;;;1865205;75;21253;-73
2021/04/29 08:00:55;;;;;;;21.87;14.47;;;13.80;99.90;;;;;;1873215;75;21080;-72
2021/04/29 08:03:22;;;;;;;17.23;14.50;;;13.60;99.90;;;;;;1867665;74;21117;-72
2021/04/29 08:05:50;;;;;;;20.30;15.78;;;13.50;99.90;;;;;;1870947;74;21355;-73
2021/04/29 08:08:18;;;;;;;21.30;16.07;;;13.60;99.90;;;;;;1874379;75;21217;-74
2021/04/29 08:10:46;;;;;;;19.73;14.60;;;13.60;99.90;;;;;;1872283;75;21137;-72
2021/04/29 08:13:13;;;;;;;19.02;14.23;;;13.50;99.90;;;;;;1867369;75;21062;-74
2021/04/29 08:15:43;;;;;;;16.80;15.10;;;13.60;99.90;;;;;;1874112;75;21055;-72
2021/04/29 08:18:10;;;;;;;16.77;14.83;;;13.70;99.90;;;;;;1867798;75;21647;-73
2021/04/29 08:20:40;;;;;;;23.65;16.07;;;13.80;99.90;;;;;;1869273;75;21102;-72
2021/04/29 08:23:07;;;;;;;19.48;16.85;;;13.90;99.90;;;;;;1879563;75;21077;-73
2021/04/29 08:25:35;;;;;;;18.80;15.35;;;13.80;99.90;;;;;;1876121;75;21100;-72
2021/04/29 08:28:03;;;;;;;18.05;16.15;;;13.80;99.90;;;;;;1872705;74;21113;-72
2021/04/29 08:30:30;;;;;;;19.05;15.58;;;13.70;99.90;;;;;;1870548;74;21584;-72
2021/04/29 08:33:01;;;;;;;19.02;15.78;;;13.70;99.90;;;;;;1867547;75;21532;-73
2021/04/29 08:35:30;;;;;;;21.10;16.17;;;13.70;99.90;;;;;;1868678;74;21124;-73
2021/04/29 08:37:57;;;;;;;21.95;16.27;;;13.60;99.90;;;;;;1867185;75;20991;-73
2021/04/29 08:40:29;;;;;;;17.65;15.83;;;13.60;99.90;;;;;;1874754;74;21086;-73
2021/04/29 08:42:55;;;;;;;20.82;16.00;;;13.50;99.90;;;;;;1866505;75;21025;-73
2021/04/29 08:45:23;;;;;;;19.42;17.17;;;13.50;99.90;;;;;;1869801;74;21070;-73
2021/04/29 08:47:53;;;;;;;19.98;16.87;;;13.50;99.90;;;;;;1870808;75;21130;-73
2021/04/29 08:50:22;;;;;;;18.87;16.82;;;13.50;99.90;;;;;;1866860;74;21207;-73
2021/04/29 08:52:50;;;;;;;20.50;16.60;;;13.50;99.90;;;;;;1870041;75;21183;-73
2021/04/29 08:55:26;;;;;;;22.00;17.48;;;13.50;99.90;;;;;;1872580;74;21536;-73
2021/04/29 08:57:54;;;;;;;18.65;16.20;;;13.50;99.90;;;;;;1867151;75;21113;-73
2021/04/29 09:00:23;;;;;;;21.70;17.90;;;13.30;99.90;;;;;;1869895;75;21635;-73
2021/04/29 09:02:52;;;;;;;21.50;17.32;;;13.40;99.90;;;;;;1870228;75;21208;-74
2021/04/29 09:05:22;;;;;;;22.80;17.80;;;13.40;99.90;;;;;;1867033;74;21528;-73
2021/04/29 09:08:05;;;;;;;20.00;17.10;;;13.50;99.90;;;;;;1870541;75;21036;-73
2021/04/29 09:10:35;;;;;;;23.15;18.48;;;13.60;99.90;;;;;;1871428;74;21165;-73
2021/04/29 09:13:17;;;;;;;20.25;17.75;;;13.70;99.90;;;;;;1871805;75;21630;-73
2021/04/29 09:15:47;;;;;;;20.20;17.25;;;13.70;99.90;;;;;;1874122;75;21151;-73
2021/04/29 09:18:16;;;;;;;22.32;17.27;;;13.40;99.90;;;;;;1871101;75;21401;-73
2021/04/29 09:21:05;;;;;;;18.05;15.75;;;13.50;99.90;;;;;;1874545;75;21203;-72
2021/04/29 09:23:32;;;;;;;20.27;15.10;;;13.20;99.90;;;;;;1868070;75;21123;-72
2021/04/29 09:26:06;;;;;;;17.98;15.65;;;13.20;99.90;;;;;;1873883;74;21152;-72
2021/04/29 09:28:42;;;;;;;20.82;15.65;;;13.40;99.90;;;;;;1873241;75;21175;-71
2021/04/29 09:31:12;;;;;;;19.42;16.00;;;13.40;99.90;;;;;;1861718;75;21097;-73
2021/04/29 09:33:42;;;;;;;19.57;16.00;;;13.30;99.90;;;;;;1867867;75;21119;-75
2021/04/29 09:36:25;;;;;;;21.35;15.90;;;13.30;99.90;;;;;;1875954;75;21465;-74
2021/04/29 09:38:58;;;;;;;21.23;17.17;;;13.50;99.90;;;;;;1870334;75;21223;-72
2021/04/29 09:41:28;;;;;;;21.20;16.50;;;13.40;99.90;;;;;;1874688;75;21194;-72
2021/04/29 09:43:59;;;;;;;18.62;16.10;;;13.50;99.90;;;;;;1868985;75;21148;-72
2021/04/29 09:46:38;;;;;;;22.90;15.93;;;13.50;99.90;;;;;;1874757;75;21097;-72
2021/04/29 09:49:31;;;;;;;18.73;16.75;;;13.60;99.90;;;;;;1871917;75;21234;-72
2021/04/29 09:52:00;;;;;;;19.87;16.35;;;13.50;99.90;;;;;;1873624;75;21171;-71
2021/04/29 09:54:31;;;;;;;17.70;15.80;;;13.40;99.90;;;;;;1873461;74;21070;-74
2021/04/29 09:57:04;;;;;;;18.73;16.23;;;13.40;99.90;;;;;;1870490;75;21109;-73
2021/04/29 09:59:33;;;;;;;19.37;15.20;;;13.40;99.90;;;;;;1870943;75;21200;-72
2021/04/29 10:02:01;;;;;;;20.27;15.60;;;13.20;99.90;;;;;;1871694;75;22062;-72
2021/04/29 10:04:31;;;;;;;19.50;15.15;;;13.20;99.90;;;;;;1874348;75;21132;-73
2021/04/29 10:07:01;;;;;;;21.45;16.95;;;13.00;99.90;;;;;;1870924;75;21039;-72
2021/04/29 10:09:30;;;;;;;20.80;16.12;;;13.20;99.90;;;;;;1872443;75;21153;-72
2021/04/29 10:12:01;;;;;;;22.93;17.55;;;13.30;99.90;;;;;;1868991;75;21101;-72
2021/04/29 10:14:31;;;;;;;21.75;17.77;;;13.10;99.90;;;;;;1873424;75;21160;-75
2021/04/29 10:17:01;;;;;;;21.05;16.37;;;13.30;99.90;;;;;;1869207;75;21089;-74
2021/04/29 10:19:30;;;;;;;20.23;15.93;;;13.20;99.90;;;;;;1869830;75;21149;-76
2021/04/29 10:22:01;;;;;;;19.87;16.65;;;13.20;99.90;;;;;;1871462;75;21234;-76
2021/04/29 10:24:28;;;;;;;21.97;16.48;;;13.10;99.90;;;;;;1869911;74;21058;-76
2021/04/29 10:27:05;;;;;;;19.02;16.97;;;13.20;99.90;;;;;;1871209;75;21101;-77
2021/04/29 10:29:33;;;;;;;20.12;16.75;;;13.30;99.90;;;;;;1869508;75;21102;-79
2021/04/29 10:32:02;;;;;;;19.55;16.95;;;13.30;99.90;;;;;;1869460;75;21062;-78
2021/04/29 10:34:44;;;;;;;19.87;17.87;;;13.40;99.90;;;;;;1874726;75;21078;-79
2021/04/29 10:37:20;;;;;;;22.82;18.70;;;13.40;99.90;;;;;;1877126;75;21082;-78
2021/04/29 10:39:53;;;;;;;21.05;17.20;;;13.40;99.90;;;;;;1873094;75;21098;-79
2021/04/29 10:42:20;;;;;;;22.70;17.20;;;13.40;99.90;;;;;;1871132;75;21250;-78
2021/04/29 10:44:51;;;;;;;19.67;17.37;;;13.40;99.90;;;;;;1872098;74;21089;-78
2021/04/29 10:47:29;;;;;;;19.60;17.62;;;13.40;99.90;;;;;;1874258;75;21234;-77
2021/04/29 10:50:12;;;;;;;17.50;15.35;;;13.50;99.90;;;;;;1870807;75;21088;-75
2021/04/29 10:52:51;;;;;;;18.60;16.67;;;13.50;99.90;;;;;;1875858;75;21100;-75
2021/04/29 10:55:33;;;;;;;18.17;15.15;;;13.50;99.90;;;;;;1873900;75;21521;-74
2021/04/29 10:58:01;;;;;;;17.73;15.48;;;13.50;99.90;;;;;;1864718;75;21203;-73
2021/04/29 11:00:30;;;;;;;19.05;15.83;;;13.50;99.90;;;;;;1868909;75;21614;-76
2021/04/29 11:03:03;;;;;;;18.32;16.25;;;13.50;99.90;;;;;;1871603;75;21109;-74
2021/04/29 11:05:33;;;;;;;18.02;16.10;;;13.50;99.90;;;;;;1865783;75;21094;-75
2021/04/29 11:08:06;;;;;;;18.05;15.83;;;13.60;99.90;;;;;;1873592;74;21115;-75
2021/04/29 11:10:35;;;;;;;17.40;14.60;;;13.70;99.90;;;;;;1871416;75;21145;-72
2021/04/29 11:13:03;;;;;;;19.90;15.25;;;13.80;99.90;;;;;;1869224;75;21208;-73
2021/04/29 11:15:40;;;;;;;32.85;15.05;;;13.90;99.90;;;;;;1869408;75;21540;-73
2021/04/29 11:18:12;;;;;;;15.85;14.10;;;14.10;99.90;;;;;;1874127;75;21129;-77
2021/04/29 11:20:59;;;;;;;16.70;14.80;;;14.10;99.90;;;;;;1871359;75;21126;-79
2021/04/29 11:23:39;;;;;;;17.90;14.95;;;14.00;99.90;;;;;;1872033;75;21134;-77
2021/04/29 11:26:08;;;;;;;19.07;14.85;;;14.00;99.90;;;;;;1869287;75;21137;-76
2021/04/29 11:28:37;;;;;;;16.15;14.43;;;14.10;99.90;;;;;;1871488;74;21743;-76
2021/04/29 11:31:05;;;;;;;14.78;13.22;;;13.90;99.90;;;;;;1869051;75;21102;-75
2021/04/29 11:33:38;;;;;;;14.95;13.45;;;13.90;99.90;;;;;;1878878;75;21532;-73
2021/04/29 11:36:22;;;;;;;14.80;13.22;;;13.90;99.90;;;;;;1876181;75;21171;-72
2021/04/29 11:38:57;;;;;;;15.68;14.07;;;13.80;99.90;;;;;;1876434;75;21026;-73
2021/04/29 11:41:27;;;;;;;17.62;14.23;;;13.80;99.90;;;;;;1871404;74;21054;-72
2021/04/29 11:44:02;;;;;;;14.43;12.93;;;13.80;99.90;;;;;;1868486;75;21525;-72
2021/04/29 11:46:31;;;;;;;15.65;12.78;;;13.80;99.90;;;;;;1869679;74;21116;-72
2021/04/29 11:49:05;;;;;;;14.53;13.13;;;13.60;99.90;;;;;;1870799;75;21043;-71
2021/04/29 11:51:37;;;;;;;15.78;14.13;;;13.50;99.90;;;;;;1873556;74;21520;-72
2021/04/29 11:54:07;;;;;;;70.80;58.95;;;13.40;99.90;;;;;;1870653;75;21093;-72
2021/04/29 11:56:43;;;;;;;22.45;19.25;;;13.60;99.90;;;;;;1872138;75;21074;-71
2021/04/29 11:59:12;;;;;;;26.30;23.60;;;13.60;99.90;;;;;;1872816;75;21179;-71
2021/04/29 12:01:41;;;;;;;15.90;14.13;;;13.60;99.90;;;;;;1873681;75;21130;-72
2021/04/29 12:04:19;;;;;;;13.15;11.85;;;13.80;99.90;;;;;;1873629;75;21093;-70
2021/04/29 12:06:57;;;;;;;12.23;11.03;;;13.90;99.90;;;;;;1872702;74;21164;-71
2021/04/29 12:09:26;;;;;;;12.33;10.75;;;14.00;99.90;;;;;;1873853;74;21114;-70
2021/04/29 12:11:55;;;;;;;13.85;10.72;;;14.10;99.90;;;;;;1882572;75;21055;-69
2021/04/29 12:14:24;;;;;;;14.10;10.55;;;14.30;99.90;;;;;;1874389;75;21575;-70
2021/04/29 12:16:55;;;;;;;60.35;52.35;;;14.50;99.90;;;;;;1873158;75;21210;-73
2021/04/29 12:19:27;;;;;;;22.75;18.87;;;14.50;99.90;;;;;;1870279;75;22209;-72
2021/04/29 12:21:54;;;;;;;;;;;14.40;99.90;;;;;;1870005;75;21153;-70
2021/04/29 12:24:22;;;;;;;12.50;11.30;;;14.10;99.90;;;;;;1870986;75;20177;-71
2021/04/29 12:26:49;;;;;;;10.28;9.18;;;14.20;99.90;;;;;;1875928;75;21101;-72
2021/04/29 12:29:22;;;;;;;12.47;9.85;;;14.30;99.90;;;;;;1870782;75;21102;-72
2021/04/29 12:31:54;;;;;;;11.28;10.18;;;14.30;99.90;;;;;;1870047;75;21101;-71
2021/04/29 12:34:24;;;;;;;10.65;9.63;;;14.60;99.90;;;;;;1866036;75;21051;-72
2021/04/29 12:36:53;;;;;;;10.38;9.05;;;14.90;99.90;;;;;;1870716;75;21583;-72
2021/04/29 12:39:23;;;;;;;8.75;7.95;;;15.10;99.90;;;;;;1865242;75;22213;-71